createdAt,value
2022-09-26T00:00:19.855Z,100
2022-09-26T00:01:20.781Z,100
2022-09-26T00:02:19.788Z,100
2022-09-26T00:03:19.716Z,100
2022-09-26T00:04:23.749Z,100
2022-09-26T00:05:20.913Z,100
2022-09-26T00:06:21.894Z,100
2022-09-26T00:07:21.246Z,100
2022-09-26T00:08:21.006Z,100
2022-09-26T00:09:21.972Z,100
2022-09-26T00:10:20.998Z,100
2022-09-26T00:11:22.799Z,100
2022-09-26T00:12:21.048Z,100
2022-09-26T00:13:21.109Z,100
2022-09-26T00:14:23.010Z,100
2022-09-26T00:15:21.110Z,100
2022-09-26T00:16:21.206Z,100
2022-09-26T00:17:21.175Z,100
2022-09-26T00:18:21.237Z,100
2022-09-26T00:19:21.641Z,100
2022-09-26T00:20:21.192Z,100
2022-09-26T00:21:21.958Z,100
2022-09-26T00:22:21.207Z,100
2022-09-26T00:23:21.286Z,100
2022-09-26T00:24:21.256Z,100
2022-09-26T00:25:21.249Z,100
2022-09-26T00:26:22.240Z,100
2022-09-26T00:27:21.300Z,100
2022-09-26T00:28:21.349Z,100
2022-09-26T00:29:21.563Z,100
2022-09-26T00:30:21.466Z,100
2022-09-26T00:31:23.689Z,100
2022-09-26T00:32:21.407Z,100
2022-09-26T00:33:21.445Z,100
2022-09-26T00:34:21.461Z,100
2022-09-26T00:35:21.595Z,100
2022-09-26T00:36:26.882Z,100
2022-09-26T00:37:23.477Z,100
2022-09-26T00:38:23.566Z,100
2022-09-26T00:39:23.544Z,100
2022-09-26T00:40:23.589Z,100
2022-09-26T00:41:23.553Z,100
2022-09-26T00:42:23.541Z,100
2022-09-26T00:43:27.454Z,100
2022-09-26T00:45:30.106Z,100
2022-09-26T00:47:43.930Z,100
2022-09-26T00:48:36.867Z,100
2022-09-26T00:49:38.305Z,100
2022-09-26T00:50:37.580Z,100
2022-09-26T00:51:39.011Z,100
2022-09-26T00:52:44.581Z,100
2022-09-26T00:53:39.177Z,100
2022-09-26T00:54:38.673Z,100
2022-09-26T00:55:38.487Z,100
2022-09-26T00:56:38.270Z,100
2022-09-26T00:57:38.796Z,100
2022-09-26T00:58:41.107Z,100
2022-09-26T00:59:41.524Z,100
2022-09-26T01:00:42.240Z,100
2022-09-26T01:01:39.346Z,100
2022-09-26T01:02:39.553Z,100
2022-09-26T01:03:40.873Z,100
2022-09-26T01:04:40.701Z,100
2022-09-26T01:05:39.519Z,100
2022-09-26T01:06:39.291Z,100
2022-09-26T01:07:39.471Z,100
2022-09-26T01:08:41.667Z,100
2022-09-26T01:09:39.481Z,100
2022-09-26T01:10:39.336Z,100
2022-09-26T01:11:40.409Z,100
2022-09-26T01:12:39.487Z,100
2022-09-26T01:13:39.502Z,100
2022-09-26T01:14:41.079Z,100
2022-09-26T01:15:39.371Z,100
2022-09-26T01:16:41.119Z,100
2022-09-26T01:17:41.276Z,100
2022-09-26T01:18:39.749Z,100
2022-09-26T01:23:04.744Z,100
2022-09-26T01:27:17.472Z,100
2022-09-26T01:28:18.421Z,100
2022-09-26T01:30:16.436Z,100
2022-09-26T01:34:32.701Z,100
2022-09-26T01:44:04.105Z,100
2022-09-26T01:45:04.983Z,100
2022-09-26T01:54:24.456Z,100
2022-09-26T01:56:25.345Z,100
2022-09-26T01:58:35.194Z,100
2022-09-26T01:59:37.054Z,100
2022-09-26T02:00:29.485Z,100
2022-09-26T02:01:31.106Z,100
2022-09-26T02:02:30.525Z,100
2022-09-26T02:03:31.463Z,100
2022-09-26T02:04:34.854Z,100
2022-09-26T02:05:33.229Z,100
2022-09-26T02:06:35.386Z,100
2022-09-26T02:07:44.175Z,100
2022-09-26T02:08:40.926Z,100
2022-09-26T02:10:49.194Z,100
2022-09-26T02:11:43.463Z,100
2022-09-26T02:12:43.595Z,100
2022-09-26T02:14:43.190Z,100
2022-09-26T02:15:43.922Z,100
2022-09-26T02:16:48.267Z,100
2022-09-26T02:17:48.044Z,100
2022-09-26T02:18:49.262Z,100
2022-09-26T02:19:52.541Z,100
2022-09-26T02:20:56.054Z,100
2022-09-26T02:21:53.195Z,100
2022-09-26T02:22:53.033Z,100
2022-09-26T02:23:53.498Z,100
2022-09-26T02:24:53.182Z,100
2022-09-26T02:25:52.828Z,100
2022-09-26T02:26:53.755Z,100
2022-09-26T02:27:52.825Z,100
2022-09-26T02:28:52.827Z,100
2022-09-26T02:29:53.572Z,100
2022-09-26T02:30:54.260Z,100
2022-09-26T02:31:56.422Z,100
2022-09-26T02:32:53.160Z,100
2022-09-26T02:33:53.396Z,100
2022-09-26T02:34:54.075Z,100
2022-09-26T02:35:53.476Z,100
2022-09-26T02:36:53.864Z,100
2022-09-26T02:37:53.517Z,100
2022-09-26T02:38:53.285Z,100
2022-09-26T02:39:53.460Z,100
2022-09-26T02:40:59.770Z,100
2022-09-26T02:43:06.638Z,100
2022-09-26T02:44:12.383Z,100
2022-09-26T02:45:16.927Z,100
2022-09-26T02:50:28.484Z,100
2022-09-26T02:51:29.923Z,100
2022-09-26T03:03:55.313Z,100
2022-09-26T03:05:57.425Z,100
2022-09-26T03:06:57.922Z,100
2022-09-26T03:07:58.001Z,100
2022-09-26T03:08:56.038Z,100
2022-09-26T03:09:55.534Z,100
2022-09-26T03:10:55.997Z,100
2022-09-26T03:11:55.109Z,100
2022-09-26T03:12:56.595Z,100
2022-09-26T03:13:55.896Z,100
2022-09-26T03:14:58.544Z,100
2022-09-26T03:15:57.313Z,100
2022-09-26T03:16:55.361Z,100
2022-09-26T03:17:56.539Z,100
2022-09-26T03:18:57.155Z,100
2022-09-26T03:19:59.758Z,100
2022-09-26T03:20:56.125Z,100
2022-09-26T03:21:56.394Z,100
2022-09-26T03:22:56.160Z,100
2022-09-26T03:23:56.144Z,100
2022-09-26T03:24:57.911Z,100
2022-09-26T03:27:02.126Z,100
2022-09-26T03:28:00.735Z,100
2022-09-26T03:29:00.675Z,100
2022-09-26T03:30:00.740Z,100
2022-09-26T03:31:00.704Z,100
2022-09-26T03:32:01.589Z,100
2022-09-26T03:33:00.742Z,100
2022-09-26T03:34:00.745Z,100
2022-09-26T03:35:00.828Z,100
2022-09-26T03:36:03.919Z,100
2022-09-26T03:37:00.778Z,100
2022-09-26T03:38:00.788Z,100
2022-09-26T03:39:00.794Z,100
2022-09-26T03:40:04.791Z,100
2022-09-26T03:41:01.347Z,100
2022-09-26T03:42:00.982Z,100
2022-09-26T03:43:01.042Z,100
2022-09-26T03:44:01.500Z,100
2022-09-26T03:45:01.728Z,100
2022-09-26T03:46:05.288Z,100
2022-09-26T03:47:01.842Z,100
2022-09-26T03:48:02.301Z,100
2022-09-26T03:49:01.641Z,100
2022-09-26T03:50:01.631Z,100
2022-09-26T03:51:03.009Z,100
2022-09-26T03:52:02.107Z,100
2022-09-26T03:53:01.703Z,100
2022-09-26T03:54:01.924Z,100
2022-09-26T03:55:01.701Z,100
2022-09-26T03:57:03.934Z,100
2022-09-26T03:58:03.892Z,100
2022-09-26T03:59:03.412Z,100
2022-09-26T04:00:03.947Z,100
2022-09-26T04:01:07.139Z,100
2022-09-26T04:02:03.605Z,100
2022-09-26T04:03:03.560Z,100
2022-09-26T04:04:03.521Z,100
2022-09-26T04:05:04.118Z,100
2022-09-26T04:06:04.137Z,100
2022-09-26T04:07:03.511Z,100
2022-09-26T04:08:03.539Z,100
2022-09-26T04:09:03.657Z,100
2022-09-26T04:10:03.944Z,100
2022-09-26T04:11:05.300Z,100
2022-09-26T04:12:03.634Z,100
2022-09-26T04:13:03.580Z,100
2022-09-26T04:14:03.896Z,100
2022-09-26T04:15:04.601Z,100
2022-09-26T04:16:04.258Z,100
2022-09-26T04:17:03.627Z,100
2022-09-26T04:18:03.668Z,100
2022-09-26T04:19:04.198Z,100
2022-09-26T04:20:04.417Z,100
2022-09-26T04:21:09.874Z,100
2022-09-26T04:22:06.549Z,100
2022-09-26T04:23:06.597Z,100
2022-09-26T04:24:14.022Z,100
2022-09-26T04:25:10.226Z,100
2022-09-26T04:26:12.058Z,100
2022-09-26T04:27:10.243Z,100
2022-09-26T04:28:10.232Z,100
2022-09-26T04:29:10.704Z,100
2022-09-26T04:30:10.841Z,100
2022-09-26T04:31:10.821Z,100
2022-09-26T04:32:10.949Z,100
2022-09-26T04:33:10.345Z,100
2022-09-26T04:34:10.940Z,100
2022-09-26T04:35:10.338Z,100
2022-09-26T04:36:12.123Z,100
2022-09-26T04:37:10.377Z,100
2022-09-26T04:38:10.360Z,100
2022-09-26T04:39:10.691Z,100
2022-09-26T04:40:10.801Z,100
2022-09-26T04:41:16.851Z,100
2022-09-26T04:42:13.058Z,100
2022-09-26T04:43:13.105Z,100
2022-09-26T04:44:13.156Z,100
2022-09-26T04:45:13.096Z,100
2022-09-26T04:46:22.859Z,100
2022-09-26T04:47:15.955Z,100
2022-09-26T04:48:15.979Z,100
2022-09-26T04:49:16.151Z,100
2022-09-26T04:50:16.387Z,100
2022-09-26T04:51:16.834Z,100
2022-09-26T04:52:16.049Z,100
2022-09-26T04:53:16.389Z,100
2022-09-26T04:54:16.243Z,100
2022-09-26T04:55:16.433Z,100
2022-09-26T04:56:16.821Z,100
2022-09-26T04:57:19.737Z,100
2022-09-26T04:58:16.822Z,100
2022-09-26T04:59:16.464Z,100
2022-09-26T05:00:16.672Z,100
2022-09-26T05:01:19.075Z,100
2022-09-26T05:02:17.761Z,100
2022-09-26T05:03:17.650Z,100
2022-09-26T05:04:17.629Z,100
2022-09-26T05:05:17.673Z,100
2022-09-26T05:06:18.023Z,100
2022-09-26T05:07:17.740Z,100
2022-09-26T05:08:17.751Z,100
2022-09-26T05:09:17.727Z,100
2022-09-26T05:10:17.758Z,100
2022-09-26T05:11:18.173Z,100
2022-09-26T05:12:17.771Z,100
2022-09-26T05:13:17.851Z,100
2022-09-26T05:14:18.012Z,100
2022-09-26T05:15:17.806Z,100
2022-09-26T05:16:18.037Z,100
2022-09-26T05:17:17.839Z,100
2022-09-26T05:18:17.891Z,100
2022-09-26T05:19:17.900Z,100
2022-09-26T05:20:17.978Z,100
2022-09-26T05:21:17.958Z,100
2022-09-26T05:22:17.899Z,100
2022-09-26T05:23:19.526Z,100
2022-09-26T05:24:17.958Z,100
2022-09-26T05:25:17.988Z,100
2022-09-26T05:27:19.852Z,100
2022-09-26T05:28:20.077Z,100
2022-09-26T05:29:19.969Z,100
2022-09-26T05:30:19.936Z,100
2022-09-26T05:31:19.941Z,100
2022-09-26T05:32:19.885Z,100
2022-09-26T05:33:20.083Z,100
2022-09-26T05:34:20.507Z,100
2022-09-26T05:35:19.933Z,100
2022-09-26T05:36:19.915Z,100
2022-09-26T05:37:19.961Z,100
2022-09-26T05:38:19.975Z,100
2022-09-26T05:39:20.031Z,100
2022-09-26T05:40:20.095Z,100
2022-09-26T05:41:20.544Z,100
2022-09-26T05:42:20.041Z,100
2022-09-26T05:43:20.038Z,100
2022-09-26T05:44:20.344Z,100
2022-09-26T05:45:20.065Z,100
2022-09-26T05:46:20.181Z,100
2022-09-26T05:47:20.142Z,100
2022-09-26T05:48:20.138Z,100
2022-09-26T05:49:20.189Z,100
2022-09-26T05:50:20.163Z,100
2022-09-26T05:51:20.174Z,100
2022-09-26T05:52:20.183Z,100
2022-09-26T05:53:20.492Z,100
2022-09-26T05:54:20.258Z,100
2022-09-26T05:55:20.253Z,100
2022-09-26T05:56:20.529Z,100
2022-09-26T05:57:20.297Z,100
2022-09-26T05:58:20.305Z,100
2022-09-26T05:59:20.330Z,100
2022-09-26T06:00:20.581Z,100
2022-09-26T06:01:20.496Z,100
2022-09-26T06:02:21.148Z,100
2022-09-26T06:03:20.415Z,100
2022-09-26T06:04:20.413Z,100
2022-09-26T06:05:20.478Z,100
2022-09-26T06:06:20.467Z,100
2022-09-26T06:07:20.444Z,100
2022-09-26T06:08:20.450Z,100
2022-09-26T06:09:20.486Z,100
2022-09-26T06:10:20.526Z,100
2022-09-26T06:11:21.432Z,100
2022-09-26T06:12:20.522Z,100
2022-09-26T06:13:20.584Z,100
2022-09-26T06:14:20.573Z,100
2022-09-26T06:15:20.592Z,100
2022-09-26T06:16:21.334Z,100
2022-09-26T06:17:20.593Z,100
2022-09-26T06:18:20.978Z,100
2022-09-26T06:19:22.932Z,100
2022-09-26T06:20:20.649Z,100
2022-09-26T06:21:20.890Z,100
2022-09-26T06:22:20.716Z,99.83
2022-09-26T06:23:20.722Z,99.19
2022-09-26T06:24:20.705Z,99.09
2022-09-26T06:25:20.954Z,99.09
2022-09-26T06:26:22.045Z,99.2
2022-09-26T06:27:20.972Z,99.11
2022-09-26T06:28:20.844Z,98.35
2022-09-26T06:29:20.810Z,97.83
2022-09-26T06:30:20.910Z,96.71
2022-09-26T06:31:20.864Z,95.84
2022-09-26T06:32:21.050Z,95.84
2022-09-26T06:33:21.549Z,95.61
2022-09-26T06:34:21.078Z,95.24
2022-09-26T06:35:21.554Z,94.49
2022-09-26T06:36:21.654Z,95.41
2022-09-26T06:37:20.944Z,96.64
2022-09-26T06:38:20.927Z,97.97
2022-09-26T06:39:20.957Z,98.75
2022-09-26T06:40:21.076Z,98.53
2022-09-26T06:41:21.014Z,98.6
2022-09-26T06:42:21.050Z,96.08
2022-09-26T06:43:21.241Z,94.8
2022-09-26T06:44:21.042Z,94.12
2022-09-26T06:45:21.263Z,91.84
2022-09-26T06:46:21.297Z,90.79
2022-09-26T06:47:21.107Z,90.53
2022-09-26T06:48:24.505Z,90
2022-09-26T06:49:21.135Z,90.13
2022-09-26T06:50:22.128Z,91.13
2022-09-26T06:51:21.169Z,91.53
2022-09-26T06:52:21.229Z,91.74
2022-09-26T06:53:21.256Z,91.81
2022-09-26T06:54:21.196Z,91.84
2022-09-26T06:55:21.241Z,91.69
2022-09-26T06:56:21.516Z,91.57
2022-09-26T06:57:21.630Z,90.09
2022-09-26T06:58:21.340Z,88.85
2022-09-26T06:59:21.321Z,89.03
2022-09-26T07:00:21.310Z,89.56
2022-09-26T07:01:21.629Z,89
2022-09-26T07:02:21.441Z,88.54
2022-09-26T07:03:21.403Z,87.94
2022-09-26T07:04:21.385Z,87.77
2022-09-26T07:05:22.357Z,88.09
2022-09-26T07:06:21.386Z,89.04
2022-09-26T07:07:21.433Z,89.13
2022-09-26T07:08:32.368Z,88.41
2022-09-26T07:09:22.629Z,89.06
2022-09-26T07:10:22.641Z,90.55
2022-09-26T07:12:24.204Z,90.62
2022-09-26T07:13:24.110Z,88.79
2022-09-26T07:14:23.892Z,88.72
2022-09-26T07:15:23.897Z,86.55
2022-09-26T07:16:23.975Z,85.81
2022-09-26T07:17:23.926Z,85.83
2022-09-26T07:18:24.679Z,85.19
2022-09-26T07:19:23.944Z,85.63
2022-09-26T07:20:24.048Z,83.71
2022-09-26T07:21:24.013Z,83.45
2022-09-26T07:22:24.006Z,83.72
2022-09-26T07:23:24.019Z,82.86
2022-09-26T07:24:24.308Z,83.43
2022-09-26T07:25:24.060Z,83.75
2022-09-26T07:26:24.335Z,83.49
2022-09-26T07:27:24.097Z,82.91
2022-09-26T07:28:24.320Z,83.25
2022-09-26T07:29:24.175Z,83.46
2022-09-26T07:30:24.552Z,83.17
2022-09-26T07:31:24.285Z,81.94
2022-09-26T07:32:24.752Z,81.65
2022-09-26T07:33:24.406Z,81.73
2022-09-26T07:34:24.191Z,82.07
2022-09-26T07:35:24.439Z,83.61
2022-09-26T07:36:24.249Z,82.56
2022-09-26T07:37:24.269Z,81.8
2022-09-26T07:38:24.493Z,81.64
2022-09-26T07:39:24.372Z,81.83
2022-09-26T07:40:24.603Z,82.02
2022-09-26T07:41:24.539Z,81.72
2022-09-26T07:42:24.501Z,81.6
2022-09-26T07:43:42.796Z,80.82
2022-09-26T07:45:29.652Z,81.35
2022-09-26T07:46:26.877Z,82.02
2022-09-26T07:47:26.618Z,81.4
2022-09-26T07:48:26.652Z,81.27
2022-09-26T07:49:26.695Z,81.26
2022-09-26T07:50:26.678Z,81.13
2022-09-26T07:51:26.760Z,81.29
2022-09-26T07:52:27.838Z,81.25
2022-09-26T07:53:27.770Z,79.9
2022-09-26T07:54:26.754Z,79.77
2022-09-26T07:55:28.143Z,79.57
2022-09-26T07:56:26.890Z,79.18
2022-09-26T07:57:26.805Z,77.13
2022-09-26T07:58:26.830Z,77.23
2022-09-26T07:59:26.861Z,78.64
2022-09-26T08:00:26.851Z,78.35
2022-09-26T08:01:26.942Z,78.4
2022-09-26T08:02:28.065Z,77.38
2022-09-26T08:03:27.871Z,77.15
2022-09-26T08:04:26.891Z,76.9
2022-09-26T08:05:27.256Z,76.26
2022-09-26T08:06:27.155Z,76.87
2022-09-26T08:07:26.938Z,76.29
2022-09-26T08:08:27.150Z,74.78
2022-09-26T08:09:26.994Z,75.55
2022-09-26T08:10:27.028Z,75.22
2022-09-26T08:11:27.061Z,75.08
2022-09-26T08:12:27.273Z,75.47
2022-09-26T08:13:28.159Z,75.72
2022-09-26T08:14:27.047Z,75.59
2022-09-26T08:15:27.306Z,75.93
2022-09-26T08:16:27.418Z,75.24
2022-09-26T08:17:29.445Z,75.69
2022-09-26T08:18:27.148Z,75.57
2022-09-26T08:19:27.150Z,75.08
2022-09-26T08:20:31.914Z,75.08
2022-09-26T08:21:28.765Z,75.28
2022-09-26T08:22:28.491Z,75.72
2022-09-26T08:23:28.530Z,75.39
2022-09-26T08:24:28.521Z,75.09
2022-09-26T08:25:28.556Z,74.55
2022-09-26T08:26:28.542Z,75.03
2022-09-26T08:27:31.810Z,75.04
2022-09-26T08:28:28.833Z,75.43
2022-09-26T08:29:29.088Z,74.79
2022-09-26T08:30:28.966Z,74.28
2022-09-26T08:31:28.778Z,73.39
2022-09-26T08:32:28.631Z,73.32
2022-09-26T08:33:29.081Z,73.38
2022-09-26T08:34:28.764Z,73.55
2022-09-26T08:35:28.889Z,74.45
2022-09-26T08:36:28.702Z,73.55
2022-09-26T08:37:28.988Z,73.12
2022-09-26T08:38:28.764Z,72.99
2022-09-26T08:39:33.119Z,73.22
2022-09-26T08:47:48.299Z,73.47
2022-09-26T08:50:52.023Z,73.23
2022-09-26T08:51:51.244Z,73.19
2022-09-26T08:53:57.416Z,73.14
2022-09-26T08:54:55.345Z,72.93
2022-09-26T08:55:54.804Z,72.76
2022-09-26T08:56:57.355Z,72.94
2022-09-26T08:57:55.434Z,72.71
2022-09-26T08:58:55.463Z,72.52
2022-09-26T08:59:53.921Z,72.84
2022-09-26T09:00:59.777Z,72.34
2022-09-26T09:02:00.036Z,71.7
2022-09-26T09:04:12.667Z,72.73
2022-09-26T09:06:10.675Z,72.64
2022-09-26T09:07:17.026Z,72.66
2022-09-26T09:08:13.616Z,73.55
2022-09-26T09:09:14.264Z,73.16
2022-09-26T09:10:16.424Z,71.07
2022-09-26T09:12:22.985Z,71.03
2022-09-26T09:13:26.372Z,70.48
2022-09-26T09:31:08.452Z,71.33
2022-09-26T09:32:05.858Z,70.56
2022-09-26T09:34:11.349Z,71.7
2022-09-26T09:35:12.995Z,71.54
2022-09-26T09:36:14.742Z,71.08
2022-09-26T09:37:17.004Z,71.18
2022-09-26T09:38:17.782Z,71.35
2022-09-26T09:39:26.653Z,72.11
2022-09-26T09:40:27.308Z,71.27
2022-09-26T09:42:27.892Z,70.54
2022-09-26T09:45:34.879Z,68.97
2022-09-26T09:47:36.230Z,69.63
2022-09-26T09:48:32.860Z,69.76
2022-09-26T09:49:32.678Z,69.7
2022-09-26T10:00:18.722Z,70
2022-09-26T10:06:13.674Z,69.6
2022-09-26T10:07:14.784Z,69.13
2022-09-26T10:08:18.455Z,69.26
2022-09-26T10:12:25.565Z,68.84
2022-09-26T10:13:24.831Z,69.7
2022-09-26T10:14:33.454Z,69.1
2022-09-26T10:15:25.422Z,69.15
2022-09-26T10:16:25.660Z,68.82
2022-09-26T10:17:25.680Z,68.38
2022-09-26T10:18:26.681Z,69.19
2022-09-26T10:19:35.100Z,69.14
2022-09-26T10:21:30.837Z,69.12
2022-09-26T10:22:36.375Z,68.96
2022-09-26T10:23:38.291Z,68.39
2022-09-26T10:24:35.748Z,67.83
2022-09-26T10:25:34.750Z,67.94
2022-09-26T10:26:35.368Z,68.1
2022-09-26T10:27:39.323Z,68.76
2022-09-26T10:28:42.953Z,69.55
2022-09-26T10:29:40.221Z,68.44
2022-09-26T10:30:46.870Z,68.57
2022-09-26T10:31:43.473Z,68.93
2022-09-26T10:32:45.149Z,70.26
2022-09-26T10:33:44.641Z,69.33
2022-09-26T10:34:43.621Z,67.65
2022-09-26T10:35:44.499Z,67.08
2022-09-26T10:36:43.700Z,67.61
2022-09-26T10:37:43.317Z,66.46
2022-09-26T10:39:54.747Z,68.73
2022-09-26T10:40:53.267Z,67
2022-09-26T10:41:56.336Z,67.42
2022-09-26T10:42:52.517Z,66.89
2022-09-26T10:43:53.762Z,66.94
2022-09-26T10:44:54.974Z,67.4
2022-09-26T10:45:53.918Z,67.12
2022-09-26T10:46:54.540Z,66.56
2022-09-26T10:47:53.824Z,67.23
2022-09-26T10:48:54.242Z,66.86
2022-09-26T10:50:54.872Z,68.61
2022-09-26T10:52:01.391Z,67.93
2022-09-26T10:53:04.112Z,67.34
2022-09-26T10:54:04.361Z,66.82
2022-09-26T10:55:05.050Z,67.16
2022-09-26T10:56:06.988Z,67.51
2022-09-26T10:57:03.484Z,67.24
2022-09-26T10:58:11.383Z,67.39
2022-09-26T10:59:05.075Z,67.33
2022-09-26T11:00:05.624Z,68.45
2022-09-26T11:01:05.004Z,66.94
2022-09-26T11:02:05.389Z,66.68
2022-09-26T11:03:05.693Z,67.15
2022-09-26T11:05:07.806Z,66.94
2022-09-26T11:07:20.180Z,67.16
2022-09-26T11:08:18.423Z,66.57
2022-09-26T11:09:20.076Z,65.29
2022-09-26T11:10:22.567Z,69.58
2022-09-26T11:11:19.606Z,66.7
2022-09-26T11:12:26.167Z,64.62
2022-09-26T11:13:24.088Z,64.35
2022-09-26T11:14:28.047Z,64.14
2022-09-26T11:15:25.277Z,64.32
2022-09-26T11:16:25.215Z,64.74
2022-09-26T11:22:43.118Z,64.27
2022-09-26T11:24:46.449Z,64.04
2022-09-26T11:27:50.744Z,63.96
2022-09-26T11:28:53.283Z,63.42
2022-09-26T11:30:55.840Z,62.87
2022-09-26T11:31:56.003Z,62.51
2022-09-26T11:32:56.008Z,62.81
2022-09-26T11:33:57.610Z,62.99
2022-09-26T11:34:54.753Z,61.88
2022-09-26T11:44:34.369Z,62.35
2022-09-26T11:47:39.508Z,62.39
2022-09-26T11:52:49.694Z,61.8
2022-09-26T11:59:15.804Z,60.71
2022-09-26T12:00:12.747Z,60.74
2022-09-26T12:05:27.012Z,60.55
2022-09-26T12:11:37.528Z,60.54
2022-09-26T12:12:37.004Z,60.8
2022-09-26T12:15:43.935Z,62.18
2022-09-26T12:18:52.404Z,60.85
2022-09-26T12:19:57.358Z,60.92
2022-09-26T12:24:02.029Z,59.92
2022-09-26T12:32:28.629Z,59.98
2022-09-26T12:33:37.669Z,60.63
2022-09-26T12:53:28.792Z,60.71
2022-09-26T13:07:18.385Z,59.29
2022-09-26T13:10:10.052Z,59.18
2022-09-26T13:17:33.164Z,60.36
2022-09-26T13:18:34.630Z,60.81
2022-09-26T13:19:32.442Z,60.48
2022-09-26T13:20:33.947Z,60.45
2022-09-26T13:23:40.336Z,61.08
2022-09-26T13:24:45.170Z,60.63
2022-09-26T13:26:48.152Z,59.53
2022-09-26T13:29:58.305Z,60.74
2022-09-26T13:30:53.133Z,60.77
2022-09-26T13:33:56.662Z,61.91
2022-09-26T13:35:57.429Z,62.07
2022-09-26T13:36:57.872Z,61.24
2022-09-26T13:39:04.094Z,62.39
2022-09-26T13:42:18.246Z,62.65
2022-09-26T13:47:21.423Z,63.04
2022-09-26T13:50:24.273Z,63.19
2022-09-26T13:51:25.110Z,63.61
2022-09-26T13:54:30.264Z,63.57
2022-09-26T13:55:26.485Z,63.74
2022-09-26T13:57:36.202Z,63.61
2022-09-26T13:58:38.743Z,63.53
2022-09-26T14:00:38.821Z,63.04
2022-09-26T14:01:37.181Z,63.28
2022-09-26T14:02:36.948Z,63.63
2022-09-26T14:03:37.534Z,64.22
2022-09-26T14:04:37.539Z,64.64
2022-09-26T14:09:54.171Z,65.08
2022-09-26T14:10:52.885Z,65.74
2022-09-26T14:11:51.158Z,65.45
2022-09-26T14:13:03.679Z,65.17
2022-09-26T14:15:57.224Z,64.68
2022-09-26T14:16:55.711Z,64.9
2022-09-26T14:19:55.888Z,67.62
2022-09-26T14:23:00.709Z,67.86
2022-09-26T14:26:09.691Z,70.17
2022-09-26T14:33:19.116Z,71.67
2022-09-26T14:34:20.893Z,71.4
2022-09-26T14:36:24.543Z,72.1
2022-09-26T14:38:24.196Z,73.03
2022-09-26T14:40:33.896Z,73.1
2022-09-26T14:41:32.794Z,72.73
2022-09-26T14:42:34.371Z,72.51
2022-09-26T14:43:31.110Z,73.54
2022-09-26T14:44:36.364Z,73.72
2022-09-26T14:46:40.567Z,75.08
2022-09-26T14:47:39.463Z,75.4
2022-09-26T14:48:39.025Z,75.87
2022-09-26T14:49:37.591Z,76.79
2022-09-26T14:51:42.401Z,75.59
2022-09-26T14:52:41.468Z,75.31
2022-09-26T14:53:49.033Z,74.86
2022-09-26T14:54:46.221Z,75.23
2022-09-26T14:56:50.907Z,74.22
2022-09-26T14:57:48.852Z,73.87
2022-09-26T14:58:50.804Z,73.27
2022-09-26T14:59:49.230Z,73.77
2022-09-26T15:00:49.003Z,72.92
2022-09-26T15:01:49.055Z,72.95
2022-09-26T15:02:48.968Z,72.99
2022-09-26T15:03:50.889Z,72.93
2022-09-26T15:04:52.930Z,72.76
2022-09-26T15:05:49.852Z,72.5
2022-09-26T15:06:54.258Z,72.51
2022-09-26T15:07:54.457Z,72.53
2022-09-26T15:08:52.591Z,72.79
2022-09-26T15:10:05.233Z,72.77
2022-09-26T15:10:53.494Z,73.25
2022-09-26T15:11:54.688Z,73.11
2022-09-26T15:13:02.967Z,72.92
2022-09-26T15:13:55.264Z,73.21
2022-09-26T15:16:57.821Z,73.41
2022-09-26T15:20:05.238Z,74.95
2022-09-26T15:22:10.627Z,74.65
2022-09-26T15:26:14.972Z,75.2
2022-09-26T15:27:18.701Z,74.99
2022-09-26T15:28:15.083Z,75.25
2022-09-26T15:29:15.312Z,75.24
2022-09-26T15:30:19.148Z,75.58
2022-09-26T15:33:19.425Z,76.15
2022-09-26T15:35:22.222Z,78.24
2022-09-26T15:36:22.284Z,78.86
2022-09-26T15:38:26.744Z,77.65
2022-09-26T15:39:37.265Z,77.64
2022-09-26T15:40:30.282Z,77.58
2022-09-26T15:41:28.984Z,77.93
2022-09-26T15:42:29.861Z,77.85
2022-09-26T15:43:33.914Z,77.92
2022-09-26T15:44:30.761Z,77.95
2022-09-26T15:46:32.030Z,78.67
2022-09-26T15:48:33.138Z,79.6
2022-09-26T15:49:32.916Z,79.68
2022-09-26T15:51:39.231Z,80.21
2022-09-26T15:52:39.813Z,80.34
2022-09-26T15:53:42.490Z,80.86
2022-09-26T15:54:38.906Z,80.96
2022-09-26T15:56:44.640Z,80.84
2022-09-26T15:57:42.334Z,80.63
2022-09-26T15:58:51.058Z,80.76
2022-09-26T15:59:42.514Z,81.3
2022-09-26T16:00:45.936Z,81.25
2022-09-26T16:01:43.845Z,81.54
2022-09-26T16:02:42.892Z,81.92
2022-09-26T16:03:46.336Z,82.26
2022-09-26T16:04:42.558Z,82.23
2022-09-26T16:05:44.636Z,82.57
2022-09-26T16:06:50.793Z,82.64
2022-09-26T16:07:48.664Z,82.85
2022-09-26T16:08:50.870Z,83.27
2022-09-26T16:09:48.459Z,83.28
2022-09-26T16:10:52.985Z,83.33
2022-09-26T16:11:50.700Z,83.41
2022-09-26T16:12:49.399Z,83.49
2022-09-26T16:13:51.421Z,83.3
2022-09-26T16:14:52.060Z,83.66
2022-09-26T16:15:58.786Z,83.97
2022-09-26T16:16:50.131Z,83.8
2022-09-26T16:17:54.003Z,83.66
2022-09-26T16:18:57.700Z,83.79
2022-09-26T16:19:58.154Z,83.83
2022-09-26T16:23:04.849Z,83.79
2022-09-26T16:27:16.020Z,83.88
2022-09-26T16:29:09.186Z,84.26
2022-09-26T16:32:18.274Z,84.36
2022-09-26T16:34:23.954Z,84.29
2022-09-26T16:35:23.041Z,84.3
2022-09-26T16:36:23.925Z,84.48
2022-09-26T16:37:22.616Z,84.68
2022-09-26T16:38:31.065Z,84.79
2022-09-26T16:39:29.088Z,84.76
2022-09-26T16:40:28.703Z,85.17
2022-09-26T16:41:59.445Z,85.22
2022-09-26T16:42:28.488Z,85.34
2022-09-26T16:43:31.993Z,85.43
2022-09-26T16:44:36.012Z,86.01
2022-09-26T16:45:33.304Z,85.74
2022-09-26T16:46:37.401Z,85.86
2022-09-26T16:47:39.866Z,85.77
2022-09-26T16:48:37.259Z,85.6
2022-09-26T16:49:43.813Z,85.53
2022-09-26T16:50:39.990Z,85.77
2022-09-26T16:51:40.079Z,85.67
2022-09-26T16:52:40.022Z,85.85
2022-09-26T16:53:40.036Z,85.87
2022-09-26T16:54:40.050Z,86.06
2022-09-26T16:55:40.081Z,85.96
2022-09-26T16:56:41.076Z,86.4
2022-09-26T16:58:48.719Z,87.16
2022-09-26T16:59:44.948Z,87.6
2022-09-26T17:00:48.771Z,87.9
2022-09-26T17:01:50.134Z,88.01
2022-09-26T17:02:47.750Z,87.66
2022-09-26T17:03:47.662Z,87.59
2022-09-26T17:04:49.231Z,87.43
2022-09-26T17:05:47.906Z,87.35
2022-09-26T17:06:50.829Z,87.56
2022-09-26T17:07:49.258Z,87.76
2022-09-26T17:08:47.729Z,87.65
2022-09-26T17:09:47.740Z,87.51
2022-09-26T17:10:47.963Z,87.65
2022-09-26T17:11:49.396Z,87.68
2022-09-26T17:12:47.784Z,87.46
2022-09-26T17:13:49.477Z,87.66
2022-09-26T17:14:49.695Z,87.75
2022-09-26T17:15:49.052Z,87.81
2022-09-26T17:16:48.981Z,87.87
2022-09-26T17:17:48.496Z,88.33
2022-09-26T17:18:47.883Z,88.41
2022-09-26T17:19:49.007Z,88.46
2022-09-26T17:20:48.725Z,88.27
2022-09-26T17:21:48.125Z,88.18
2022-09-26T17:22:47.970Z,88.44
2022-09-26T17:23:47.951Z,88.47
2022-09-26T17:24:48.478Z,88.44
2022-09-26T17:25:48.279Z,88.43
2022-09-26T17:26:55.197Z,88.2
2022-09-26T17:27:53.552Z,87.79
2022-09-26T17:28:52.338Z,87.39
2022-09-26T17:29:52.058Z,87.34
2022-09-26T17:30:52.119Z,87.48
2022-09-26T17:31:52.413Z,87.34
2022-09-26T17:32:52.403Z,87.04
2022-09-26T17:33:52.990Z,86.96
2022-09-26T17:34:51.541Z,86.92
2022-09-26T17:35:51.668Z,86.86
2022-09-26T17:36:51.921Z,86.53
2022-09-26T17:37:51.895Z,86.29
2022-09-26T17:38:51.575Z,86.3
2022-09-26T17:39:51.813Z,86.19
2022-09-26T17:40:51.669Z,86.28
2022-09-26T17:41:55.319Z,86.53
2022-09-26T17:42:52.230Z,86.39
2022-09-26T17:43:51.603Z,86.21
2022-09-26T17:44:51.713Z,86.16
2022-09-26T17:45:51.847Z,86.38
2022-09-26T17:46:54.076Z,86.38
2022-09-26T17:47:53.470Z,86.58
2022-09-26T17:48:52.357Z,86.9
2022-09-26T17:49:52.805Z,86.87
2022-09-26T17:50:55.960Z,87.01
2022-09-26T17:51:53.417Z,87.13
2022-09-26T17:52:52.413Z,87.09
2022-09-26T17:53:52.883Z,86.86
2022-09-26T17:54:53.843Z,86.8
2022-09-26T17:55:52.619Z,86.71
2022-09-26T17:56:52.410Z,86.45
2022-09-26T17:57:52.693Z,86.28
2022-09-26T17:58:52.523Z,86.43
2022-09-26T17:59:52.871Z,86.6
2022-09-26T18:00:52.706Z,86.68
2022-09-26T18:01:54.840Z,86.59
2022-09-26T18:02:57.083Z,86.78